createdAt,value
2023-03-26T00:00:06.659Z,28.51
2023-03-26T00:01:06.690Z,28.54
2023-03-26T00:02:06.886Z,29.60
2023-03-26T00:03:06.806Z,29.92
2023-03-26T00:04:06.848Z,30.15
2023-03-26T00:05:05.911Z,28.08
2023-03-26T00:06:05.895Z,30.13
2023-03-26T00:07:06.877Z,26.47
2023-03-26T00:08:06.918Z,28.45
2023-03-26T00:09:06.921Z,28.54
2023-03-26T00:10:06.977Z,28.76
2023-03-26T00:11:07.012Z,28.25
2023-03-26T00:12:07.045Z,29.95
2023-03-26T00:13:07.093Z,28.27
2023-03-26T00:14:06.108Z,32.29
2023-03-26T00:15:07.246Z,30.60
2023-03-26T00:16:07.208Z,29.06
2023-03-26T00:17:07.249Z,27.17
2023-03-26T00:18:07.317Z,30.62
2023-03-26T00:19:07.277Z,27.51
2023-03-26T00:20:07.304Z,28.21
2023-03-26T00:21:07.323Z,30.69
2023-03-26T00:22:07.350Z,29.62
2023-03-26T00:23:07.374Z,30.59
2023-03-26T00:24:07.418Z,28.57
2023-03-26T00:25:07.568Z,27.42
2023-03-26T00:26:06.475Z,30.92
2023-03-26T00:27:07.508Z,27.81
2023-03-26T00:28:07.539Z,29.64
2023-03-26T00:29:07.584Z,29.77
2023-03-26T00:30:07.599Z,30.28
2023-03-26T00:31:07.735Z,28.20
2023-03-26T00:32:07.657Z,28.06
2023-03-26T00:33:07.798Z,28.61
2023-03-26T00:34:07.719Z,27.99
2023-03-26T00:35:07.738Z,32.00
2023-03-26T00:36:07.851Z,30.86
2023-03-26T00:37:07.860Z,26.11
2023-03-26T00:38:06.862Z,31.99
2023-03-26T00:39:07.883Z,25.00
2023-03-26T00:40:07.896Z,31.49
2023-03-26T00:41:07.909Z,29.56
2023-03-26T00:42:07.976Z,29.14
2023-03-26T00:43:07.997Z,30.21
2023-03-26T00:44:08.017Z,26.40
2023-03-26T00:45:07.011Z,26.97
2023-03-26T00:46:08.076Z,26.95
2023-03-26T00:47:07.072Z,27.60
2023-03-26T00:48:08.167Z,27.69
2023-03-26T00:49:08.100Z,29.34
2023-03-26T00:50:08.133Z,31.23
2023-03-26T00:51:07.139Z,28.55
2023-03-26T00:52:07.152Z,28.21
2023-03-26T00:53:08.188Z,28.91
2023-03-26T00:54:08.189Z,31.23
2023-03-26T00:55:08.178Z,26.04
2023-03-26T00:56:08.204Z,29.17
2023-03-26T00:57:08.270Z,25.82
2023-03-26T00:58:08.227Z,29.65
2023-03-26T00:59:07.217Z,30.83
2023-03-26T01:00:07.228Z,28.66
2023-03-26T01:01:07.264Z,29.26
2023-03-26T01:02:08.249Z,29.25
2023-03-26T01:03:08.357Z,31.58
2023-03-26T01:04:09.280Z,26.61
2023-03-26T01:05:08.325Z,27.98
2023-03-26T01:06:08.297Z,29.44
2023-03-26T01:07:07.311Z,28.15
2023-03-26T01:08:08.301Z,30.23
2023-03-26T01:09:08.319Z,28.79
2023-03-26T01:10:08.312Z,28.58
2023-03-26T01:11:08.339Z,29.45
2023-03-26T01:12:08.343Z,26.56
2023-03-26T01:13:08.348Z,29.21
2023-03-26T01:14:08.350Z,29.00
2023-03-26T01:15:08.366Z,29.74
2023-03-26T01:16:08.378Z,31.00
2023-03-26T01:17:08.349Z,29.03
2023-03-26T01:18:08.343Z,27.21
2023-03-26T01:19:08.393Z,28.38
2023-03-26T01:20:08.374Z,29.73
2023-03-26T01:21:07.398Z,26.30
2023-03-26T01:22:08.392Z,30.44
2023-03-26T01:23:08.380Z,29.26
2023-03-26T01:24:08.382Z,31.02
2023-03-26T01:25:08.407Z,29.32
2023-03-26T01:26:08.391Z,29.00
2023-03-26T01:27:08.379Z,29.94
2023-03-26T01:28:07.388Z,29.90
2023-03-26T01:29:08.406Z,31.18
2023-03-26T01:30:08.474Z,28.80
2023-03-26T01:31:08.401Z,29.22
2023-03-26T01:32:07.379Z,29.42
2023-03-26T01:33:08.425Z,28.36
2023-03-26T01:34:08.383Z,33.16
2023-03-26T01:35:07.412Z,30.05
2023-03-26T01:36:08.471Z,28.41
2023-03-26T01:37:08.365Z,31.16
2023-03-26T01:38:08.384Z,26.20
2023-03-26T01:39:07.371Z,29.82
2023-03-26T01:40:08.380Z,30.33
2023-03-26T01:41:08.367Z,28.61
2023-03-26T01:42:08.361Z,26.76
2023-03-26T01:43:07.358Z,27.19
2023-03-26T01:44:08.346Z,25.76
2023-03-26T01:45:08.353Z,27.99
2023-03-26T01:46:08.380Z,29.05
2023-03-26T01:47:08.351Z,29.20
2023-03-26T01:48:08.370Z,25.50
2023-03-26T01:49:08.371Z,26.98
2023-03-26T01:50:08.371Z,28.78
2023-03-26T01:51:08.414Z,28.81
2023-03-26T01:52:08.372Z,29.47
2023-03-26T01:53:07.357Z,31.12
2023-03-26T01:54:08.351Z,30.24
2023-03-26T01:55:08.357Z,30.62
2023-03-26T01:56:08.357Z,28.79
2023-03-26T01:57:08.431Z,28.89
2023-03-26T01:58:07.348Z,27.31
2023-03-26T01:59:08.382Z,28.84
2023-03-26T02:00:08.351Z,28.57
2023-03-26T02:01:08.357Z,27.97
2023-03-26T02:02:08.476Z,30.65
2023-03-26T02:03:08.443Z,30.59
2023-03-26T02:04:08.332Z,28.46
2023-03-26T02:05:08.352Z,29.53
2023-03-26T02:06:08.365Z,29.00
2023-03-26T02:07:08.365Z,28.93
2023-03-26T02:08:08.346Z,30.47
2023-03-26T02:09:07.344Z,29.33
2023-03-26T02:10:08.343Z,28.89
2023-03-26T02:11:08.367Z,30.64
2023-03-26T02:12:08.344Z,27.44
2023-03-26T02:13:07.330Z,31.54
2023-03-26T02:14:07.340Z,29.52
2023-03-26T02:15:08.334Z,29.97
2023-03-26T02:16:07.333Z,28.80
2023-03-26T02:17:08.320Z,29.06
2023-03-26T02:18:08.323Z,29.96
2023-03-26T02:19:07.312Z,29.58
2023-03-26T02:20:08.314Z,30.78
2023-03-26T02:21:08.315Z,26.90
2023-03-26T02:22:08.311Z,27.80
2023-03-26T02:23:08.317Z,30.54
2023-03-26T02:24:08.292Z,28.90
2023-03-26T02:25:08.297Z,28.63
2023-03-26T02:26:07.298Z,30.06
2023-03-26T02:27:08.304Z,28.06
2023-03-26T02:28:08.283Z,29.06
2023-03-26T02:29:08.309Z,29.56
2023-03-26T02:30:08.293Z,28.11
2023-03-26T02:31:08.275Z,29.33
2023-03-26T02:32:08.307Z,28.23
2023-03-26T02:33:08.332Z,29.89
2023-03-26T02:34:08.279Z,29.42
2023-03-26T02:35:08.321Z,31.03
2023-03-26T02:36:07.392Z,31.55
2023-03-26T02:37:08.284Z,29.53
2023-03-26T02:38:08.290Z,30.40
2023-03-26T02:39:08.319Z,29.62
2023-03-26T02:40:08.287Z,29.14
2023-03-26T02:41:08.279Z,29.79
2023-03-26T02:42:08.285Z,30.78
2023-03-26T02:43:08.283Z,31.22
2023-03-26T02:44:08.292Z,29.22
2023-03-26T02:45:08.285Z,31.69
2023-03-26T02:46:08.306Z,30.30
2023-03-26T02:47:08.292Z,30.90
2023-03-26T02:48:08.275Z,29.95
2023-03-26T02:49:08.286Z,30.89
2023-03-26T02:50:07.280Z,32.66
2023-03-26T02:51:08.275Z,32.58
2023-03-26T02:52:08.260Z,30.00
2023-03-26T02:53:08.254Z,28.99
2023-03-26T02:54:07.291Z,31.11
2023-03-26T02:55:08.270Z,30.07
2023-03-26T02:56:08.252Z,31.17
2023-03-26T02:57:08.354Z,29.69
2023-03-26T02:58:08.256Z,29.90
2023-03-26T02:59:08.256Z,30.11
2023-03-26T03:00:07.237Z,29.39
2023-03-26T03:01:08.275Z,29.61
2023-03-26T03:02:08.309Z,25.19
2023-03-26T03:03:08.290Z,30.40
2023-03-26T03:04:08.226Z,32.24
2023-03-26T03:05:08.231Z,29.43
2023-03-26T03:06:08.234Z,30.24
2023-03-26T03:07:08.231Z,29.44
2023-03-26T03:08:07.214Z,28.12
2023-03-26T03:09:08.212Z,31.65
2023-03-26T03:10:08.228Z,28.46
2023-03-26T03:11:08.233Z,28.31
2023-03-26T03:12:08.242Z,28.85
2023-03-26T03:13:08.209Z,28.05
2023-03-26T03:14:08.225Z,31.24
2023-03-26T03:15:08.229Z,30.76
2023-03-26T03:16:08.217Z,29.28
2023-03-26T03:17:08.276Z,28.33
2023-03-26T03:18:08.216Z,29.12
2023-03-26T03:19:08.241Z,26.73
2023-03-26T03:20:07.210Z,29.97
2023-03-26T03:21:08.209Z,28.27
2023-03-26T03:22:08.219Z,29.26
2023-03-26T03:23:08.208Z,29.21
2023-03-26T03:24:08.215Z,28.78
2023-03-26T03:25:08.249Z,30.79
2023-03-26T03:26:08.192Z,29.73
2023-03-26T03:27:08.227Z,29.06
2023-03-26T03:28:08.192Z,28.66
2023-03-26T03:29:08.178Z,30.21
2023-03-26T03:30:08.265Z,27.66
2023-03-26T03:31:08.205Z,27.90
2023-03-26T03:32:08.218Z,26.40
2023-03-26T03:33:08.238Z,29.85
2023-03-26T03:34:08.186Z,26.49
2023-03-26T03:35:07.198Z,30.35
2023-03-26T03:36:08.248Z,31.08
2023-03-26T03:37:08.548Z,28.38
2023-03-26T03:38:08.201Z,28.78
2023-03-26T03:39:07.186Z,29.08
2023-03-26T03:40:08.199Z,28.26
2023-03-26T03:41:08.193Z,27.85
2023-03-26T03:42:08.192Z,28.98
2023-03-26T03:43:08.237Z,29.21
2023-03-26T03:44:08.189Z,28.20
2023-03-26T03:45:08.179Z,30.38
2023-03-26T03:46:08.222Z,27.19
2023-03-26T03:47:07.187Z,29.99
2023-03-26T03:48:08.280Z,28.37
2023-03-26T03:49:08.180Z,30.92
2023-03-26T03:50:08.199Z,30.27
2023-03-26T03:51:08.190Z,29.80
2023-03-26T03:52:08.187Z,26.35
2023-03-26T03:53:08.186Z,28.77
2023-03-26T03:54:08.186Z,27.09
2023-03-26T03:55:08.182Z,27.30
2023-03-26T03:56:08.168Z,28.99
2023-03-26T03:57:08.203Z,27.61
2023-03-26T03:58:07.175Z,31.41
2023-03-26T03:59:08.205Z,30.28
2023-03-26T04:00:07.176Z,28.15
2023-03-26T04:01:08.181Z,28.51
2023-03-26T04:02:08.166Z,25.75
2023-03-26T04:03:08.400Z,27.03
2023-03-26T04:04:08.277Z,29.74
2023-03-26T04:05:08.201Z,28.57
2023-03-26T04:06:08.183Z,29.21
2023-03-26T04:07:08.175Z,29.47
2023-03-26T04:08:08.180Z,28.08
2023-03-26T04:09:07.189Z,25.78
2023-03-26T04:10:08.179Z,28.52
2023-03-26T04:11:08.188Z,29.35
2023-03-26T04:12:08.188Z,28.35
2023-03-26T04:13:08.198Z,26.57
2023-03-26T04:14:08.202Z,27.84
2023-03-26T04:15:08.224Z,29.61
2023-03-26T04:16:08.237Z,28.54
2023-03-26T04:17:08.209Z,25.00
2023-03-26T04:18:08.251Z,29.68
2023-03-26T04:19:08.222Z,29.16
2023-03-26T04:20:07.240Z,28.66
2023-03-26T04:21:08.282Z,25.00
2023-03-26T04:22:08.241Z,28.73
2023-03-26T04:23:08.263Z,28.49
2023-03-26T04:24:08.253Z,30.65
2023-03-26T04:25:07.260Z,28.97
2023-03-26T04:26:08.249Z,26.28
2023-03-26T04:27:08.257Z,28.97
2023-03-26T04:28:08.252Z,29.08
2023-03-26T04:29:08.261Z,28.32
2023-03-26T04:30:08.283Z,27.40
2023-03-26T04:31:08.384Z,27.65
2023-03-26T04:32:07.292Z,27.41
2023-03-26T04:33:07.313Z,29.71
2023-03-26T04:34:08.281Z,27.95
2023-03-26T04:35:08.276Z,25.00
2023-03-26T04:36:08.309Z,28.87
2023-03-26T04:37:07.284Z,28.53
2023-03-26T04:38:07.293Z,28.21
2023-03-26T04:39:07.308Z,29.54
2023-03-26T04:40:08.312Z,32.29
2023-03-26T04:41:08.311Z,27.65
2023-03-26T04:42:08.331Z,28.66
2023-03-26T04:43:08.330Z,28.11
2023-03-26T04:44:08.338Z,27.97
2023-03-26T04:45:07.502Z,28.37
2023-03-26T04:46:08.356Z,26.78
2023-03-26T04:47:08.390Z,28.17
2023-03-26T04:48:08.373Z,28.67
2023-03-26T04:49:08.365Z,28.29
2023-03-26T04:50:08.367Z,28.10
2023-03-26T04:51:08.358Z,28.68
2023-03-26T04:52:07.380Z,26.93
2023-03-26T04:53:08.411Z,25.45
2023-03-26T04:54:08.381Z,27.99
2023-03-26T04:55:08.385Z,26.72
2023-03-26T04:56:08.400Z,32.67
2023-03-26T04:57:08.427Z,29.91
2023-03-26T04:58:08.412Z,27.90
2023-03-26T04:59:08.417Z,29.40
2023-03-26T05:00:08.416Z,27.61
2023-03-26T05:01:10.142Z,29.25
2023-03-26T05:02:07.406Z,31.65
2023-03-26T05:03:08.476Z,29.73
2023-03-26T05:04:08.439Z,30.38
2023-03-26T05:05:08.381Z,31.91
2023-03-26T05:06:08.373Z,32.38
2023-03-26T05:07:08.370Z,31.24
2023-03-26T05:08:08.371Z,26.60
2023-03-26T05:09:08.428Z,30.40
2023-03-26T05:10:08.351Z,27.21
2023-03-26T05:11:08.333Z,26.96
2023-03-26T05:12:08.336Z,29.28
2023-03-26T05:13:08.325Z,26.90
2023-03-26T05:14:08.367Z,28.26
2023-03-26T05:15:07.316Z,29.36
2023-03-26T05:16:08.333Z,30.35
2023-03-26T05:17:08.310Z,25.00
2023-03-26T05:18:07.344Z,26.70
2023-03-26T05:19:07.321Z,29.54
2023-03-26T05:20:08.273Z,29.52
2023-03-26T05:21:08.278Z,29.01
2023-03-26T05:22:08.260Z,30.40
2023-03-26T05:23:08.262Z,28.30
2023-03-26T05:24:07.244Z,25.99
2023-03-26T05:25:08.244Z,26.64
2023-03-26T05:26:08.232Z,28.58
2023-03-26T05:27:08.228Z,28.45
2023-03-26T05:28:08.221Z,28.23
2023-03-26T05:29:08.230Z,28.52
2023-03-26T05:30:08.201Z,28.26
2023-03-26T05:31:08.200Z,28.47
2023-03-26T05:32:08.196Z,27.27
2023-03-26T05:33:07.225Z,29.31
2023-03-26T05:34:08.176Z,27.17
2023-03-26T05:35:08.257Z,31.24
2023-03-26T05:36:07.183Z,29.35
2023-03-26T05:37:08.155Z,28.38
2023-03-26T05:38:08.155Z,30.09
2023-03-26T05:39:08.136Z,29.59
2023-03-26T05:40:07.135Z,29.39
2023-03-26T05:41:07.127Z,29.06
2023-03-26T05:42:07.109Z,28.73
2023-03-26T05:43:08.111Z,29.59
2023-03-26T05:44:08.121Z,27.88
2023-03-26T05:45:08.098Z,27.85
2023-03-26T05:46:08.140Z,27.89
2023-03-26T05:47:08.109Z,29.88
2023-03-26T05:48:07.116Z,30.30
2023-03-26T05:49:07.073Z,30.83
2023-03-26T05:50:07.086Z,29.76
2023-03-26T05:51:08.115Z,31.00
2023-03-26T05:52:07.057Z,30.82
2023-03-26T05:53:08.054Z,27.37
2023-03-26T05:54:08.033Z,29.60
2023-03-26T05:55:08.053Z,31.26
2023-03-26T05:56:08.027Z,30.03
2023-03-26T05:57:08.074Z,29.16
2023-03-26T05:58:07.003Z,32.01
2023-03-26T05:59:08.041Z,30.06
2023-03-26T06:00:07.999Z,27.82
2023-03-26T06:01:07.980Z,29.52
2023-03-26T06:02:07.979Z,29.23
2023-03-26T06:03:08.134Z,26.99
2023-03-26T06:04:07.005Z,29.03
2023-03-26T06:05:07.972Z,28.77
2023-03-26T06:06:06.941Z,29.10
2023-03-26T06:07:07.958Z,32.10
2023-03-26T06:08:07.924Z,29.96
2023-03-26T06:09:07.947Z,29.85
2023-03-26T06:10:07.922Z,27.25
2023-03-26T06:11:07.945Z,28.39
2023-03-26T06:12:06.892Z,29.51
2023-03-26T06:13:07.903Z,28.13
2023-03-26T06:14:07.897Z,30.24
2023-03-26T06:15:07.891Z,28.13
2023-03-26T06:16:07.940Z,29.01
2023-03-26T06:17:07.859Z,29.18
2023-03-26T06:18:07.881Z,27.81
2023-03-26T06:19:06.907Z,29.31
2023-03-26T06:20:09.442Z,30.32
2023-03-26T06:21:07.829Z,30.57
2023-03-26T06:22:07.832Z,34.77
2023-03-26T06:23:07.908Z,28.95
2023-03-26T06:24:06.815Z,30.78
2023-03-26T06:25:07.819Z,30.94
2023-03-26T06:26:07.804Z,30.90
2023-03-26T06:27:07.787Z,29.48
2023-03-26T06:28:07.792Z,27.82
2023-03-26T06:29:07.789Z,31.43
2023-03-26T06:30:07.779Z,29.78
2023-03-26T06:31:06.790Z,28.93
2023-03-26T06:32:19.070Z,26.76
2023-03-26T06:33:07.761Z,27.23
2023-03-26T06:34:07.753Z,28.36
2023-03-26T06:35:07.750Z,30.09
2023-03-26T06:36:06.752Z,31.84
2023-03-26T06:37:07.713Z,33.47
2023-03-26T06:38:07.768Z,31.44
2023-03-26T06:39:08.180Z,31.11
2023-03-26T06:40:07.701Z,32.24
2023-03-26T06:41:07.737Z,30.25
2023-03-26T06:42:07.691Z,29.74
2023-03-26T06:43:10.251Z,29.84
2023-03-26T06:44:07.703Z,30.15
2023-03-26T06:45:07.665Z,30.32
2023-03-26T06:46:07.703Z,30.77
2023-03-26T06:47:07.667Z,31.32
2023-03-26T06:48:07.678Z,30.68
2023-03-26T06:49:07.641Z,27.07
2023-03-26T06:50:07.633Z,29.10
2023-03-26T06:51:07.631Z,28.50
2023-03-26T06:52:07.621Z,29.28
2023-03-26T06:53:06.621Z,29.63
2023-03-26T06:54:06.608Z,28.38
2023-03-26T06:55:07.633Z,28.34
2023-03-26T06:56:08.887Z,30.94
2023-03-26T06:57:07.660Z,31.23
2023-03-26T06:58:07.673Z,31.53
2023-03-26T06:59:07.631Z,32.36
2023-03-26T07:00:07.646Z,29.69
2023-03-26T07:01:07.703Z,30.48
2023-03-26T07:02:07.680Z,30.65
2023-03-26T07:03:07.695Z,31.39
2023-03-26T07:04:07.750Z,30.90
2023-03-26T07:05:07.711Z,29.71
2023-03-26T07:06:06.716Z,30.30
2023-03-26T07:07:07.758Z,28.83
2023-03-26T07:08:07.788Z,26.98
2023-03-26T07:09:07.782Z,31.06
2023-03-26T07:10:07.798Z,32.05
2023-03-26T07:11:07.819Z,31.92
2023-03-26T07:12:07.813Z,27.72
2023-03-26T07:13:07.815Z,29.99
2023-03-26T07:14:06.827Z,31.17
2023-03-26T07:15:07.850Z,31.01
2023-03-26T07:16:07.904Z,29.68
2023-03-26T07:17:07.862Z,29.49
2023-03-26T07:18:07.871Z,31.14
2023-03-26T07:19:07.881Z,30.52
2023-03-26T07:20:07.892Z,29.91
2023-03-26T07:21:07.902Z,32.95
2023-03-26T07:22:07.942Z,29.97
2023-03-26T07:23:07.907Z,31.13
2023-03-26T07:24:07.935Z,29.49
2023-03-26T07:25:07.929Z,31.45
2023-03-26T07:26:07.936Z,29.86
2023-03-26T07:27:07.989Z,28.05
2023-03-26T07:28:07.980Z,32.78
2023-03-26T07:29:07.995Z,30.55
2023-03-26T07:30:07.981Z,31.40
2023-03-26T07:31:07.990Z,30.60
2023-03-26T07:32:08.076Z,29.39
2023-03-26T07:33:07.006Z,29.87
2023-03-26T07:34:08.039Z,30.38
2023-03-26T07:35:08.046Z,30.82
2023-03-26T07:36:08.058Z,31.95
2023-03-26T07:37:08.067Z,27.77
2023-03-26T07:38:08.071Z,31.53
2023-03-26T07:39:08.120Z,29.69
2023-03-26T07:40:07.096Z,30.34
2023-03-26T07:41:08.132Z,31.58
2023-03-26T07:42:08.127Z,30.94
2023-03-26T07:43:07.174Z,29.90
2023-03-26T07:44:08.162Z,30.06
2023-03-26T07:45:08.146Z,31.30
2023-03-26T07:46:07.176Z,33.66
2023-03-26T07:47:07.180Z,31.42
2023-03-26T07:48:08.181Z,29.77
2023-03-26T07:49:07.189Z,31.99
2023-03-26T07:50:08.212Z,29.02
2023-03-26T07:51:08.546Z,27.28
2023-03-26T07:52:08.224Z,30.33
2023-03-26T07:53:08.237Z,31.39
2023-03-26T07:54:08.243Z,31.76
2023-03-26T07:55:08.270Z,29.32
2023-03-26T07:56:08.314Z,30.12
2023-03-26T07:57:08.367Z,29.71
2023-03-26T07:58:08.323Z,30.61
2023-03-26T07:59:08.331Z,30.79
2023-03-26T08:00:08.320Z,29.81
2023-03-26T08:01:07.323Z,30.53
2023-03-26T08:02:08.329Z,29.94
2023-03-26T08:03:08.460Z,27.62
2023-03-26T08:04:23.657Z,28.03
2023-03-26T08:05:08.477Z,28.41
2023-03-26T08:06:08.346Z,29.45
2023-03-26T08:07:08.324Z,29.72
2023-03-26T08:08:08.333Z,31.32
2023-03-26T08:09:08.334Z,31.77
2023-03-26T08:10:08.310Z,32.00
2023-03-26T08:11:08.302Z,30.23
2023-03-26T08:12:08.297Z,29.78
2023-03-26T08:13:08.286Z,30.45
2023-03-26T08:14:08.269Z,27.02
2023-03-26T08:15:08.300Z,28.94
2023-03-26T08:16:08.332Z,29.36
2023-03-26T08:17:07.254Z,30.38
2023-03-26T08:18:08.300Z,30.62
2023-03-26T08:19:08.242Z,31.27
2023-03-26T08:20:08.242Z,30.48
2023-03-26T08:21:08.229Z,27.98
2023-03-26T08:22:08.213Z,30.37
2023-03-26T08:23:08.212Z,31.76
2023-03-26T08:24:08.200Z,30.92
2023-03-26T08:25:08.189Z,28.99
2023-03-26T08:26:08.192Z,30.86
2023-03-26T08:27:08.182Z,29.85
2023-03-26T08:28:08.193Z,30.19
2023-03-26T08:29:08.164Z,26.71
2023-03-26T08:30:08.251Z,26.77
2023-03-26T08:31:07.197Z,29.19
2023-03-26T08:32:08.140Z,30.32
2023-03-26T08:33:07.163Z,29.33
2023-03-26T08:34:08.130Z,29.33
2023-03-26T08:35:07.110Z,28.58
2023-03-26T08:36:08.111Z,32.42
2023-03-26T08:37:07.104Z,32.71
2023-03-26T08:38:08.084Z,30.65
2023-03-26T08:39:08.084Z,29.86
2023-03-26T08:40:08.068Z,31.73
2023-03-26T08:41:08.061Z,32.55
2023-03-26T08:42:08.078Z,31.08
2023-03-26T08:43:08.058Z,30.52
2023-03-26T08:44:08.052Z,32.06
2023-03-26T08:45:08.043Z,32.22
2023-03-26T08:46:08.052Z,32.06
2023-03-26T08:47:08.060Z,31.26
2023-03-26T08:48:08.057Z,32.15
2023-03-26T08:49:07.028Z,28.65
2023-03-26T08:50:08.010Z,32.40
2023-03-26T08:51:08.007Z,31.67
2023-03-26T08:52:07.995Z,33.90
2023-03-26T08:53:07.977Z,31.33
2023-03-26T08:54:07.038Z,31.29
2023-03-26T08:55:07.976Z,33.08
2023-03-26T08:56:07.038Z,31.84
2023-03-26T08:57:08.007Z,31.40
2023-03-26T08:58:07.946Z,31.13
2023-03-26T08:59:06.963Z,31.95
2023-03-26T09:00:07.924Z,32.34
2023-03-26T09:01:07.930Z,31.50
2023-03-26T09:02:07.952Z,32.70
2023-03-26T09:03:07.976Z,31.55
2023-03-26T09:04:07.944Z,30.37
2023-03-26T09:05:06.932Z,32.32
2023-03-26T09:06:07.887Z,30.99
2023-03-26T09:07:07.897Z,32.87
2023-03-26T09:08:06.876Z,29.50
2023-03-26T09:09:07.868Z,31.49
2023-03-26T09:10:07.883Z,31.92
2023-03-26T09:11:07.868Z,32.59
2023-03-26T09:12:07.851Z,32.61
2023-03-26T09:13:07.827Z,32.31
2023-03-26T09:14:07.821Z,32.27
2023-03-26T09:15:07.858Z,29.73
2023-03-26T09:16:07.900Z,31.96
2023-03-26T09:17:07.810Z,32.89
2023-03-26T09:18:07.880Z,31.45
2023-03-26T09:19:07.822Z,30.40
2023-03-26T09:20:07.784Z,31.51
2023-03-26T09:21:06.792Z,29.96
2023-03-26T09:22:07.766Z,29.57
2023-03-26T09:23:07.768Z,29.54
2023-03-26T09:24:06.753Z,28.51
2023-03-26T09:25:07.746Z,30.37
2023-03-26T09:26:07.757Z,32.79
2023-03-26T09:27:07.736Z,32.11
2023-03-26T09:28:07.724Z,29.94
2023-03-26T09:29:07.733Z,32.71
2023-03-26T09:30:07.717Z,29.76
2023-03-26T09:31:07.782Z,29.77
2023-03-26T09:32:07.706Z,31.29
2023-03-26T09:33:07.720Z,30.52
2023-03-26T09:34:07.685Z,31.81
2023-03-26T09:35:07.703Z,30.12
2023-03-26T09:36:07.681Z,29.99
2023-03-26T09:37:07.659Z,33.12
2023-03-26T09:38:07.661Z,29.71
2023-03-26T09:39:07.646Z,29.25
2023-03-26T09:40:07.654Z,31.51
2023-03-26T09:41:07.640Z,27.84
2023-03-26T09:42:06.628Z,28.86
2023-03-26T09:43:06.613Z,29.79
2023-03-26T09:44:07.605Z,30.66
2023-03-26T09:45:07.598Z,30.22
2023-03-26T09:46:07.675Z,32.35
2023-03-26T09:47:07.598Z,31.64
2023-03-26T09:48:07.585Z,30.89
2023-03-26T09:49:07.566Z,30.52
2023-03-26T09:50:06.573Z,31.45
2023-03-26T09:51:07.589Z,31.46
2023-03-26T09:52:06.548Z,31.91
2023-03-26T09:53:07.555Z,31.83
2023-03-26T09:54:07.545Z,31.91
2023-03-26T09:55:07.543Z,31.10
2023-03-26T09:56:07.546Z,30.20
2023-03-26T09:57:07.538Z,31.06
2023-03-26T09:58:07.592Z,30.93
2023-03-26T09:59:06.502Z,33.44
2023-03-26T10:00:07.516Z,32.11
2023-03-26T10:01:07.527Z,33.07
2023-03-26T10:02:07.511Z,30.86
2023-03-26T10:03:07.593Z,34.59
2023-03-26T10:04:07.565Z,33.33
2023-03-26T10:05:07.606Z,33.29
2023-03-26T10:06:06.563Z,33.50
2023-03-26T10:07:07.612Z,33.63
2023-03-26T10:08:07.614Z,32.79
2023-03-26T10:09:07.658Z,33.12
2023-03-26T10:10:06.666Z,35.20
2023-03-26T10:11:07.704Z,34.20
2023-03-26T10:12:07.742Z,33.73
2023-03-26T10:13:14.599Z,35.88
2023-03-26T10:14:07.779Z,36.27
2023-03-26T10:15:07.775Z,36.83
2023-03-26T10:16:07.761Z,32.80
2023-03-26T10:17:07.757Z,32.49
2023-03-26T10:18:27.888Z,34.23
2023-03-26T10:19:07.757Z,36.33
2023-03-26T10:20:06.716Z,36.89
2023-03-26T10:21:07.728Z,36.58
2023-03-26T10:22:07.718Z,36.93
2023-03-26T10:23:06.729Z,34.43
2023-03-26T10:24:07.750Z,35.51
2023-03-26T10:25:07.769Z,33.37
2023-03-26T10:26:07.700Z,34.28
2023-03-26T10:27:09.925Z,35.05
2023-03-26T10:28:07.680Z,35.33
2023-03-26T10:29:06.665Z,35.30
2023-03-26T10:30:07.721Z,35.49
2023-03-26T10:31:06.742Z,35.31
2023-03-26T10:32:07.701Z,32.63
2023-03-26T10:33:07.727Z,34.77
2023-03-26T10:34:07.710Z,32.81
2023-03-26T10:35:07.745Z,34.46
2023-03-26T10:36:07.634Z,33.60
2023-03-26T10:37:07.664Z,33.90
2023-03-26T10:38:07.609Z,30.49
2023-03-26T10:39:06.598Z,30.64
2023-03-26T10:40:06.585Z,30.50
2023-03-26T10:41:07.572Z,33.05
2023-03-26T10:42:07.570Z,33.59
2023-03-26T10:43:06.562Z,33.25
2023-03-26T10:44:09.051Z,32.98
2023-03-26T10:45:07.815Z,37.54
2023-03-26T10:46:07.790Z,34.45
2023-03-26T10:47:07.749Z,30.59
2023-03-26T10:48:07.877Z,35.71
2023-03-26T10:49:07.800Z,31.42
2023-03-26T10:50:07.825Z,32.32
2023-03-26T10:51:07.848Z,34.31
2023-03-26T10:52:07.869Z,33.25
2023-03-26T10:53:07.840Z,32.68
2023-03-26T10:54:07.913Z,33.58
2023-03-26T10:55:07.901Z,35.16
2023-03-26T10:56:07.913Z,35.66
2023-03-26T10:57:07.962Z,33.62
2023-03-26T10:58:07.906Z,31.25
2023-03-26T10:59:07.963Z,33.17
2023-03-26T11:00:06.966Z,34.07
2023-03-26T11:01:08.026Z,33.95
2023-03-26T11:02:08.016Z,34.78
2023-03-26T11:03:08.055Z,35.31
2023-03-26T11:04:08.054Z,32.65
2023-03-26T11:05:08.126Z,29.91
2023-03-26T11:06:08.112Z,32.71
2023-03-26T11:07:08.606Z,35.25
2023-03-26T11:08:08.140Z,31.97
2023-03-26T11:09:07.148Z,31.34
2023-03-26T11:10:08.199Z,32.63
2023-03-26T11:11:07.211Z,31.29
2023-03-26T11:12:26.371Z,33.14
2023-03-26T11:13:08.210Z,33.44
2023-03-26T11:14:08.200Z,33.98
2023-03-26T11:15:08.200Z,33.69
2023-03-26T11:16:08.233Z,34.19
2023-03-26T11:17:08.199Z,36.15
2023-03-26T11:18:08.294Z,33.61
2023-03-26T11:19:08.171Z,34.42
2023-03-26T11:20:08.164Z,34.77
2023-03-26T11:21:18.904Z,35.75
2023-03-26T11:22:08.159Z,33.61
2023-03-26T11:23:07.143Z,34.55
2023-03-26T11:24:07.139Z,35.28
2023-03-26T11:25:07.133Z,34.14
2023-03-26T11:26:08.107Z,34.10
2023-03-26T11:27:15.702Z,34.78
2023-03-26T11:28:08.198Z,35.27
2023-03-26T11:29:32.568Z,36.05
2023-03-26T11:30:08.121Z,35.31
2023-03-26T11:31:08.160Z,36.14
2023-03-26T11:32:07.074Z,36.18
2023-03-26T11:33:08.098Z,36.13
2023-03-26T11:34:08.070Z,34.12
2023-03-26T11:35:07.057Z,35.45
2023-03-26T11:36:08.111Z,32.67
2023-03-26T11:37:07.050Z,33.76
2023-03-26T11:38:08.054Z,33.44
2023-03-26T11:39:08.042Z,33.00
2023-03-26T11:40:08.094Z,32.73
2023-03-26T11:41:08.207Z,32.69
2023-03-26T11:42:08.082Z,31.09
2023-03-26T11:43:08.096Z,32.46
2023-03-26T11:44:08.067Z,31.82
2023-03-26T11:45:08.075Z,34.76
2023-03-26T11:46:06.992Z,32.21
2023-03-26T11:47:07.018Z,33.49
2023-03-26T11:48:08.085Z,32.17
2023-03-26T11:49:06.981Z,31.10
2023-03-26T11:50:08.025Z,31.33
2023-03-26T11:51:06.946Z,31.88
2023-03-26T11:52:07.937Z,31.45
2023-03-26T11:53:07.940Z,32.47
2023-03-26T11:54:07.949Z,31.49
2023-03-26T11:55:06.913Z,30.94
2023-03-26T11:56:07.907Z,29.06
2023-03-26T11:57:07.957Z,27.39
2023-03-26T11:58:07.908Z,31.05
2023-03-26T11:59:07.915Z,28.96
2023-03-26T12:00:06.886Z,31.42
2023-03-26T12:01:07.881Z,32.43
2023-03-26T12:02:07.897Z,32.41
2023-03-26T12:03:07.897Z,29.47
2023-03-26T12:04:07.891Z,33.24
2023-03-26T12:05:07.844Z,31.34
2023-03-26T12:06:07.855Z,31.26
2023-03-26T12:07:07.830Z,33.10
2023-03-26T12:08:07.821Z,30.21
2023-03-26T12:09:07.812Z,32.25
2023-03-26T12:10:19.150Z,32.13
2023-03-26T12:11:07.846Z,32.50
2023-03-26T12:12:06.803Z,33.21
2023-03-26T12:13:07.801Z,33.61
2023-03-26T12:14:07.786Z,33.26
2023-03-26T12:15:07.795Z,32.30
2023-03-26T12:16:07.802Z,29.96
2023-03-26T12:17:07.773Z,33.20
2023-03-26T12:18:07.811Z,34.15
2023-03-26T12:19:07.750Z,31.87
2023-03-26T12:20:07.757Z,31.11
2023-03-26T12:21:08.500Z,34.51
2023-03-26T12:22:06.720Z,35.62
2023-03-26T12:23:07.738Z,31.93
2023-03-26T12:24:07.714Z,29.98
2023-03-26T12:25:07.720Z,31.95
2023-03-26T12:26:07.698Z,29.49
2023-03-26T12:27:07.688Z,29.80
2023-03-26T12:28:07.682Z,31.36
2023-03-26T12:29:07.670Z,29.64
2023-03-26T12:30:07.685Z,31.23
2023-03-26T12:31:08.493Z,32.35
2023-03-26T12:32:07.709Z,32.24
2023-03-26T12:33:07.733Z,32.58
2023-03-26T12:34:06.694Z,29.93
2023-03-26T12:35:07.709Z,31.41
2023-03-26T12:36:07.689Z,31.65
2023-03-26T12:37:07.677Z,28.94
2023-03-26T12:38:07.705Z,30.28
2023-03-26T12:39:16.812Z,31.72
2023-03-26T12:40:14.063Z,32.00
2023-03-26T12:41:07.661Z,32.24
2023-03-26T12:44:43.721Z,33.18
2023-03-26T12:44:52.618Z,32.52
2023-03-26T12:44:55.666Z,32.39
2023-03-26T12:45:07.649Z,32.70
2023-03-26T12:47:54.436Z,34.36
2023-03-26T12:47:57.448Z,32.55
2023-03-26T12:48:07.684Z,32.74
2023-03-26T12:49:06.730Z,34.74
2023-03-26T12:50:06.594Z,36.39
2023-03-26T12:51:06.588Z,36.48
2023-03-26T12:52:09.304Z,38.71